Time;durP1;ratioP1;P1;durP2;ratioP2;P2;SDS_P1;SDS_P2;PMS_P1;PMS_P2;Temp;Humidity;BMP_temperature;BMP_pressure;BME280_temperature;BME280_humidity;BME280_pressure;Samples;Min_cycle;Max_cycle;Signal;HPM_P1;HPM_P2
2022/09/01 00:02:07;;;;;;;4.38;1.67;;;14.90;99.90;;;;;;5117465;28;20050;-72
2022/09/01 00:04:37;;;;;;;4.50;1.73;;;14.90;99.90;;;;;;5117458;28;20093;-73
2022/09/01 00:07:04;;;;;;;5.05;1.55;;;14.90;99.90;;;;;;5117341;28;20043;-72
2022/09/01 00:09:30;;;;;;;5.10;1.60;;;14.90;99.90;;;;;;5116061;28;20043;-72
2022/09/01 00:11:55;;;;;;;3.83;1.60;;;14.90;99.90;;;;;;5117376;28;20145;-72
2022/09/01 00:14:24;;;;;;;4.20;1.30;;;14.80;99.90;;;;;;5117019;28;20044;-72
2022/09/01 00:16:50;;;;;;;4.45;1.40;;;14.80;99.90;;;;;;5117335;28;20074;-72
2022/09/01 00:19:15;;;;;;;3.55;1.30;;;14.80;99.90;;;;;;5117207;28;20075;-72
2022/09/01 00:21:43;;;;;;;5.97;1.60;;;14.80;99.90;;;;;;5116965;28;20042;-72
2022/09/01 00:24:10;;;;;;;3.22;1.35;;;14.70;99.90;;;;;;5109408;28;20051;-72
2022/09/01 00:26:36;;;;;;;2.88;1.45;;;14.80;99.90;;;;;;5095948;28;20500;-72
2022/09/01 00:29:02;;;;;;;2.67;1.30;;;14.80;99.90;;;;;;5095899;28;20040;-72
2022/09/01 00:31:28;;;;;;;3.17;1.23;;;14.80;99.90;;;;;;5096527;28;20036;-72
2022/09/01 00:33:53;;;;;;;3.13;1.17;;;14.70;99.90;;;;;;5096476;28;20032;-72
2022/09/01 00:36:19;;;;;;;3.97;1.30;;;14.70;99.90;;;;;;5095189;28;20040;-72
2022/09/01 00:38:45;;;;;;;2.40;1.30;;;14.70;99.90;;;;;;5096322;28;20036;-72
2022/09/01 00:41:12;;;;;;;5.25;1.50;;;14.60;99.90;;;;;;5096324;28;20466;-72
2022/09/01 00:43:45;;;;;;;3.63;1.42;;;14.50;99.90;;;;;;5096415;28;20062;-73
2022/09/01 00:46:21;;;;;;;3.60;1.15;;;14.60;99.90;;;;;;5096229;28;20119;-72
2022/09/01 00:48:54;;;;;;;2.55;1.23;;;14.50;99.90;;;;;;5096257;28;20036;-72
2022/09/01 00:51:20;;;;;;;4.15;1.30;;;14.50;99.90;;;;;;5096292;28;20161;-72
2022/09/01 00:53:46;;;;;;;3.20;1.17;;;14.50;99.90;;;;;;5096340;28;20044;-72
2022/09/01 00:56:13;;;;;;;2.75;1.23;;;14.40;99.90;;;;;;5096035;28;20044;-72
2022/09/01 00:58:39;;;;;;;2.70;1.30;;;14.50;99.90;;;;;;5096120;28;20150;-72
2022/09/01 01:01:09;;;;;;;3.20;1.27;;;14.40;99.90;;;;;;5095825;28;20552;-72
2022/09/01 01:03:34;;;;;;;2.35;1.30;;;14.40;99.90;;;;;;5094758;28;20047;-72
2022/09/01 01:06:07;;;;;;;3.00;1.17;;;14.40;99.90;;;;;;5094702;28;20028;-72
2022/09/01 01:08:35;;;;;;;3.10;1.27;;;14.50;99.90;;;;;;5095996;28;20051;-72
2022/09/01 01:11:16;;;;;;;3.08;1.30;;;14.50;99.90;;;;;;5094933;28;20488;-72
2022/09/01 01:14:00;;;;;;;2.47;1.20;;;14.50;99.90;;;;;;5094278;28;20067;-72
2022/09/01 01:16:27;;;;;;;4.28;1.73;;;14.50;99.90;;;;;;5095699;28;20501;-72
2022/09/01 01:18:54;;;;;;;4.60;1.30;;;14.40;99.90;;;;;;5095800;28;20081;-72
2022/09/01 01:24:33;;;;;;;2.67;1.30;;;14.30;99.90;;;;;;5095456;28;20076;-72
2022/09/01 01:26:59;;;;;;;3.60;1.45;;;14.30;99.90;;;;;;5094290;28;20036;-72
2022/09/01 01:29:28;;;;;;;3.63;1.40;;;14.30;99.90;;;;;;5095582;28;20032;-72
2022/09/01 01:31:54;;;;;;;2.70;1.30;;;14.20;99.90;;;;;;5095385;28;20161;-72
2022/09/01 01:34:21;;;;;;;3.05;1.30;;;14.20;99.90;;;;;;5095340;28;20493;-72
2022/09/01 01:36:48;;;;;;;3.13;1.27;;;14.20;99.90;;;;;;5095226;28;20373;-72
2022/09/01 01:39:20;;;;;;;2.65;1.40;;;14.20;99.90;;;;;;5095167;28;20539;-72
2022/09/01 01:41:47;;;;;;;2.28;1.23;;;14.10;99.90;;;;;;5095139;28;20507;-72
2022/09/01 01:44:16;;;;;;;1.98;1.20;;;14.10;99.90;;;;;;5093762;28;20047;-72
2022/09/01 01:46:46;;;;;;;2.88;1.40;;;14.00;99.90;;;;;;5095227;28;20513;-72
2022/09/01 01:49:17;;;;;;;2.47;1.40;;;14.10;99.90;;;;;;5095093;28;20038;-72
2022/09/01 01:51:44;;;;;;;2.10;1.20;;;14.10;99.90;;;;;;5095062;28;20481;-72
2022/09/01 01:54:09;;;;;;;2.67;1.27;;;14.10;99.90;;;;;;5094869;28;20119;-72
2022/09/01 01:56:38;;;;;;;2.58;1.30;;;14.10;99.90;;;;;;5094872;28;20115;-72
2022/09/01 01:59:05;;;;;;;2.50;1.20;;;14.10;99.90;;;;;;5093698;28;20036;-72
2022/09/01 02:01:32;;;;;;;4.68;1.35;;;14.10;99.90;;;;;;5094759;28;20036;-72
2022/09/01 02:03:59;;;;;;;2.90;1.20;;;14.10;99.90;;;;;;5093344;28;20039;-72
2022/09/01 02:06:26;;;;;;;3.33;1.40;;;14.00;99.90;;;;;;5094764;28;20456;-72
2022/09/01 02:08:57;;;;;;;2.00;1.20;;;14.00;99.90;;;;;;5094716;28;20080;-72
2022/09/01 02:11:25;;;;;;;2.58;1.30;;;13.90;99.90;;;;;;5076951;28;20131;-72
2022/09/01 02:13:55;;;;;;;4.53;1.35;;;13.90;99.90;;;;;;5094344;28;20087;-72
2022/09/01 02:16:21;;;;;;;4.22;1.50;;;13.80;99.90;;;;;;5093119;28;20415;-72
2022/09/01 02:18:48;;;;;;;2.22;1.30;;;13.80;99.90;;;;;;5092949;28;20075;-72
2022/09/01 02:21:19;;;;;;;1.88;1.20;;;13.70;99.90;;;;;;5093746;28;20040;-72
2022/09/01 02:23:59;;;;;;;3.55;1.20;;;13.70;99.90;;;;;;5093193;28;20661;-72
2022/09/01 02:26:28;;;;;;;2.58;1.30;;;13.70;99.90;;;;;;5094361;28;20036;-72
2022/09/01 02:28:54;;;;;;;3.58;1.30;;;13.70;99.90;;;;;;5094195;28;20446;-72
2022/09/01 02:31:21;;;;;;;3.78;1.30;;;13.60;99.90;;;;;;5094223;28;20044;-72
2022/09/01 02:33:47;;;;;;;3.75;1.40;;;13.60;99.90;;;;;;5094266;28;20048;-72
2022/09/01 02:36:16;;;;;;;2.05;1.30;;;13.50;99.90;;;;;;5126931;27;20046;-72
2022/09/01 02:38:44;;;;;;;3.78;1.42;;;13.50;99.90;;;;;;5091991;28;20123;-72
2022/09/01 02:41:14;;;;;;;5.72;1.55;;;13.40;99.90;;;;;;5092485;28;20480;-72
2022/09/01 02:43:42;;;;;;;4.43;1.50;;;13.40;99.90;;;;;;5074925;28;20119;-72
2022/09/01 02:46:08;;;;;;;3.25;1.52;;;13.30;99.90;;;;;;5094099;28;20039;-72
2022/09/01 02:48:40;;;;;;;3.42;1.60;;;13.20;99.90;;;;;;5094085;28;20040;-72
2022/09/01 02:51:09;;;;;;;5.07;1.67;;;13.30;99.90;;;;;;5093878;28;20507;-72
2022/09/01 02:53:38;;;;;;;3.47;1.55;;;13.20;99.90;;;;;;5093739;28;20051;-72
2022/09/01 02:56:12;;;;;;;3.53;1.60;;;13.20;99.90;;;;;;5093658;28;20129;-72
2022/09/01 02:58:44;;;;;;;3.38;1.63;;;13.20;99.90;;;;;;5093720;28;20481;-72
2022/09/01 03:01:23;;;;;;;3.83;1.70;;;13.20;99.90;;;;;;5092669;28;20047;-71
2022/09/01 03:03:50;;;;;;;5.07;1.58;;;13.20;99.90;;;;;;5075503;28;20044;-72
2022/09/01 03:06:18;;;;;;;2.50;1.40;;;13.20;99.90;;;;;;5093688;28;20082;-72
2022/09/01 03:08:45;;;;;;;3.95;1.73;;;13.20;99.90;;;;;;5093607;28;20495;-72
2022/09/01 03:11:10;;;;;;;4.25;1.90;;;13.20;99.90;;;;;;5092339;28;20051;-72
2022/09/01 03:13:38;;;;;;;2.88;1.67;;;13.20;99.90;;;;;;5093228;28;20047;-71
2022/09/01 03:16:06;;;;;;;3.30;1.60;;;13.20;99.90;;;;;;5093607;28;20039;-72
2022/09/01 03:18:32;;;;;;;3.35;1.67;;;13.20;99.90;;;;;;5093451;28;20028;-72
2022/09/01 03:21:01;;;;;;;3.75;2.00;;;13.20;99.90;;;;;;5093343;28;20042;-72
2022/09/01 03:23:28;;;;;;;3.15;1.52;;;13.20;99.90;;;;;;5092248;28;20567;-72
2022/09/01 03:25:54;;;;;;;4.90;1.88;;;13.20;99.90;;;;;;5093571;28;20036;-72
2022/09/01 03:28:20;;;;;;;4.63;1.80;;;13.20;99.90;;;;;;5092407;28;20399;-72
2022/09/01 03:30:49;;;;;;;2.13;1.48;;;13.20;99.90;;;;;;5093243;28;20122;-72
2022/09/01 03:33:16;;;;;;;4.28;1.70;;;13.20;99.90;;;;;;5092933;28;20039;-72
2022/09/01 03:35:43;;;;;;;2.10;1.38;;;13.20;99.90;;;;;;5092367;28;20051;-72
2022/09/01 03:38:11;;;;;;;5.93;1.90;;;13.20;99.90;;;;;;5093537;28;20073;-72
2022/09/01 03:40:38;;;;;;;3.22;1.90;;;13.10;99.90;;;;;;5093348;28;20040;-72
2022/09/01 03:43:11;;;;;;;3.20;1.50;;;13.10;99.90;;;;;;5093101;28;20488;-72
2022/09/01 03:45:37;;;;;;;3.05;1.70;;;13.10;99.90;;;;;;5092181;28;20530;-72
2022/09/01 03:48:08;;;;;;;3.30;1.77;;;13.10;99.90;;;;;;5093128;28;20032;-72
2022/09/01 03:50:43;;;;;;;2.97;1.75;;;13.10;99.90;;;;;;5093418;28;20047;-72
2022/09/01 03:53:10;;;;;;;4.03;1.80;;;13.20;99.90;;;;;;5091874;28;20507;-71
2022/09/01 03:55:37;;;;;;;4.28;2.00;;;13.20;99.90;;;;;;5091978;28;20044;-72
2022/09/01 03:58:06;;;;;;;4.40;2.10;;;13.10;99.90;;;;;;5093146;28;20051;-72
2022/09/01 04:00:34;;;;;;;4.30;2.20;;;13.10;99.90;;;;;;5092996;28;20166;-72
2022/09/01 04:03:03;;;;;;;5.38;2.00;;;13.00;99.90;;;;;;5093263;28;20161;-72
2022/09/01 04:05:32;;;;;;;3.03;1.80;;;13.00;99.90;;;;;;5091671;28;20044;-72
2022/09/01 04:08:02;;;;;;;3.85;1.77;;;12.90;99.90;;;;;;5091843;28;20484;-72
2022/09/01 04:10:29;;;;;;;3.53;2.00;;;12.90;99.90;;;;;;5093004;28;20105;-72
2022/09/01 04:12:57;;;;;;;4.20;1.90;;;12.90;99.90;;;;;;5091475;28;20068;-72
2022/09/01 04:15:25;;;;;;;3.63;2.00;;;12.90;99.90;;;;;;5092756;28;20552;-72
2022/09/01 04:18:09;;;;;;;3.00;1.73;;;12.90;99.90;;;;;;5093102;28;20396;-72
2022/09/01 04:20:49;;;;;;;4.13;2.30;;;12.90;99.90;;;;;;5091554;28;20051;-72
2022/09/01 04:23:28;;;;;;;3.33;1.83;;;12.90;99.90;;;;;;5091889;28;20502;-72
2022/09/01 04:26:10;;;;;;;5.75;1.75;;;12.90;99.90;;;;;;5092748;28;20031;-72
2022/09/01 04:28:44;;;;;;;4.67;1.93;;;12.80;99.90;;;;;;5091587;28;20040;-72
2022/09/01 04:31:13;;;;;;;3.55;2.20;;;12.80;99.90;;;;;;5092778;28;20515;-72
2022/09/01 04:33:39;;;;;;;3.85;2.10;;;12.80;99.90;;;;;;5092721;28;20040;-72
2022/09/01 04:36:18;;;;;;;2.95;1.77;;;12.80;99.90;;;;;;5092701;28;20028;-72
2022/09/01 04:38:49;;;;;;;3.70;2.00;;;12.90;99.90;;;;;;5091718;28;20044;-72
2022/09/01 04:41:16;;;;;;;2.80;1.80;;;12.90;99.90;;;;;;5092592;28;20043;-72
2022/09/01 04:43:46;;;;;;;3.70;1.80;;;12.80;99.90;;;;;;5091574;28;20170;-72
2022/09/01 04:46:13;;;;;;;5.03;2.05;;;12.80;99.90;;;;;;5094006;28;20054;-72
2022/09/01 04:48:42;;;;;;;3.65;1.92;;;12.80;99.90;;;;;;5096166;28;20121;-72
2022/09/01 04:51:09;;;;;;;5.20;1.90;;;12.80;99.90;;;;;;5096368;28;20047;-72
2022/09/01 04:53:35;;;;;;;3.88;1.90;;;12.80;99.90;;;;;;5094870;28;20048;-72
2022/09/01 04:56:06;;;;;;;4.32;2.20;;;12.80;99.90;;;;;;5095951;28;20491;-72
2022/09/01 04:58:32;;;;;;;5.03;2.53;;;12.80;99.90;;;;;;5094791;28;20046;-72
2022/09/01 05:00:59;;;;;;;4.28;2.10;;;12.80;99.90;;;;;;5094607;28;20492;-72
2022/09/01 05:03:25;;;;;;;4.68;2.15;;;12.80;99.90;;;;;;5095875;28;20036;-72
2022/09/01 05:05:52;;;;;;;3.88;2.22;;;12.80;99.90;;;;;;5095778;28;20046;-71
2022/09/01 05:08:22;;;;;;;5.95;2.40;;;12.80;99.90;;;;;;5094605;28;20488;-72
2022/09/01 05:10:52;;;;;;;4.63;2.20;;;12.80;99.90;;;;;;5095883;28;20040;-72
2022/09/01 05:13:21;;;;;;;5.40;2.50;;;12.80;99.90;;;;;;5094542;28;20052;-72
2022/09/01 05:15:47;;;;;;;4.78;2.22;;;12.80;99.90;;;;;;5095567;28;20067;-72
2022/09/01 05:18:22;;;;;;;4.82;2.22;;;12.80;99.90;;;;;;5095660;28;20488;-72
2022/09/01 05:20:49;;;;;;;3.72;1.90;;;12.80;99.90;;;;;;5095566;28;20115;-72
2022/09/01 05:23:18;;;;;;;3.75;2.10;;;12.80;99.90;;;;;;5095727;28;20043;-72
2022/09/01 05:25:47;;;;;;;6.10;2.30;;;12.80;99.90;;;;;;5095496;28;20047;-72
2022/09/01 05:28:13;;;;;;;4.85;2.03;;;12.90;99.90;;;;;;5094248;28;20403;-72
2022/09/01 05:30:40;;;;;;;4.85;2.35;;;13.00;99.90;;;;;;5095398;28;20040;-72
2022/09/01 05:33:11;;;;;;;6.03;2.30;;;13.00;99.90;;;;;;5095299;28;20040;-72
2022/09/01 05:35:40;;;;;;;4.45;2.28;;;13.00;99.90;;;;;;5095321;28;20393;-72
2022/09/01 05:38:11;;;;;;;5.80;2.40;;;13.00;99.90;;;;;;5095351;28;20396;-72
2022/09/01 05:40:40;;;;;;;5.55;2.35;;;13.00;99.90;;;;;;5095179;28;20125;-72
2022/09/01 05:43:11;;;;;;;4.75;2.17;;;13.00;99.90;;;;;;5095143;28;20637;-72
2022/09/01 05:45:41;;;;;;;10.50;2.57;;;13.00;99.90;;;;;;5095121;28;20071;-72
2022/09/01 05:48:08;;;;;;;4.00;2.05;;;13.00;99.90;;;;;;5095086;28;20269;-72
2022/09/01 05:50:34;;;;;;;4.45;2.05;;;13.00;99.90;;;;;;5093950;28;20442;-72
2022/09/01 05:53:01;;;;;;;3.40;2.03;;;13.10;99.90;;;;;;5095108;28;20081;-72
2022/09/01 05:55:27;;;;;;;5.32;2.78;;;13.10;99.90;;;;;;5076882;28;20043;-72
2022/09/01 05:57:52;;;;;;;4.97;2.30;;;13.10;99.90;;;;;;5094590;28;20040;-72
2022/09/01 06:00:19;;;;;;;5.97;2.47;;;13.10;99.90;;;;;;5094890;28;20082;-72
2022/09/01 06:02:45;;;;;;;4.45;2.20;;;13.20;99.90;;;;;;5094936;28;20044;-72
2022/09/01 06:05:14;;;;;;;5.22;2.10;;;13.20;99.90;;;;;;5094696;28;20044;-72
2022/09/01 06:07:41;;;;;;;4.68;2.33;;;13.30;99.90;;;;;;5094679;28;20036;-72
2022/09/01 06:10:07;;;;;;;5.40;2.20;;;13.50;99.90;;;;;;5093370;28;20500;-72
2022/09/01 06:12:33;;;;;;;4.68;2.30;;;13.60;99.90;;;;;;5076705;28;20068;-72
2022/09/01 06:15:00;;;;;;;4.82;2.75;;;13.80;99.90;;;;;;5094279;28;20157;-72
2022/09/01 06:17:27;;;;;;;5.72;2.38;;;13.80;99.90;;;;;;5093366;28;20074;-72
2022/09/01 06:19:55;;;;;;;5.45;2.40;;;13.90;99.90;;;;;;5094435;28;20123;-72
2022/09/01 06:22:22;;;;;;;4.38;2.28;;;14.00;99.90;;;;;;5094333;28;20036;-71
2022/09/01 06:24:50;;;;;;;4.45;2.33;;;13.90;99.90;;;;;;5093281;28;20115;-72
2022/09/01 06:27:19;;;;;;;4.90;2.38;;;14.00;99.90;;;;;;5094326;28;20405;-72
2022/09/01 06:29:48;;;;;;;6.45;2.35;;;14.00;99.90;;;;;;5094245;28;20036;-72
2022/09/01 06:32:13;;;;;;;7.10;2.40;;;14.10;99.90;;;;;;5093021;28;20134;-72
2022/09/01 06:34:43;;;;;;;3.75;2.00;;;14.10;99.90;;;;;;5126967;27;20067;-72
2022/09/01 06:37:11;;;;;;;5.82;2.90;;;14.30;99.90;;;;;;5093131;28;20125;-72
2022/09/01 06:39:37;;;;;;;4.85;2.50;;;14.30;99.90;;;;;;5094204;28;20404;-72
2022/09/01 06:42:03;;;;;;;4.90;2.50;;;14.30;99.90;;;;;;5075901;28;20032;-72
2022/09/01 06:44:30;;;;;;;5.60;3.03;;;14.30;99.90;;;;;;5094057;28;20047;-72
2022/09/01 06:46:58;;;;;;;5.22;2.58;;;14.40;99.90;;;;;;5093932;28;20585;-72
2022/09/01 06:49:31;;;;;;;4.15;2.30;;;14.50;99.90;;;;;;5093924;28;20036;-72
2022/09/01 06:52:02;;;;;;;4.70;2.55;;;14.60;99.90;;;;;;5094210;28;20377;-72
2022/09/01 06:54:30;;;;;;;6.07;2.67;;;14.80;99.90;;;;;;5094051;28;20040;-71
2022/09/01 06:56:57;;;;;;;5.38;2.58;;;14.80;99.90;;;;;;5093908;28;20115;-72
2022/09/01 06:59:29;;;;;;;5.03;2.72;;;14.90;99.90;;;;;;5093766;28;20047;-72
2022/09/01 07:01:54;;;;;;;7.10;2.47;;;15.00;99.90;;;;;;5093732;28;20083;-72
2022/09/01 07:04:21;;;;;;;3.55;2.00;;;15.10;99.90;;;;;;5093679;28;20123;-72
2022/09/01 07:06:51;;;;;;;5.15;2.38;;;15.20;99.90;;;;;;5093610;28;20110;-72
2022/09/01 07:09:17;;;;;;;4.88;2.38;;;15.30;99.90;;;;;;5092945;28;20089;-72
2022/09/01 07:11:43;;;;;;;5.10;2.60;;;15.40;99.90;;;;;;5093670;28;20055;-72
2022/09/01 07:14:10;;;;;;;5.80;2.58;;;15.40;99.90;;;;;;5093502;28;20135;-73
2022/09/01 07:16:39;;;;;;;7.38;2.33;;;15.60;99.90;;;;;;5093373;28;20043;-72
2022/09/01 07:19:07;;;;;;;9.20;2.60;;;15.70;99.90;;;;;;5093470;28;20039;-72
2022/09/01 07:21:33;;;;;;;7.65;2.78;;;15.80;99.90;;;;;;5092127;28;20075;-72
2022/09/01 07:24:00;;;;;;;7.07;2.45;;;15.90;99.90;;;;;;5093456;28;20211;-72
2022/09/01 07:26:27;;;;;;;7.72;2.40;;;16.00;99.90;;;;;;5093405;28;20076;-72
2022/09/01 07:28:53;;;;;;;16.00;3.60;;;16.10;99.90;;;;;;5093370;28;20036;-72
2022/09/01 07:31:22;;;;;;;17.83;4.85;;;16.20;99.90;;;;;;5093328;28;20404;-72
2022/09/01 07:33:50;;;;;;;9.98;2.75;;;16.20;99.90;;;;;;5092049;28;20044;-72
2022/09/01 07:36:19;;;;;;;10.57;2.50;;;16.30;99.90;;;;;;5093364;28;20093;-72
2022/09/01 07:38:50;;;;;;;4.03;2.08;;;16.30;99.90;;;;;;5093374;28;20043;-72
2022/09/01 07:41:16;;;;;;;4.23;2.33;;;16.50;99.90;;;;;;5093226;28;20131;-72
2022/09/01 07:43:43;;;;;;;6.75;2.63;;;16.50;99.90;;;;;;5093169;28;20067;-72
2022/09/01 07:46:10;;;;;;;3.38;2.15;;;16.60;99.90;;;;;;5093313;28;20037;-72
2022/09/01 07:48:36;;;;;;;3.40;2.13;;;16.60;99.90;;;;;;5093235;28;20072;-72
2022/09/01 07:51:02;;;;;;;5.10;2.40;;;16.70;99.90;;;;;;5093119;28;20535;-72
2022/09/01 07:53:31;;;;;;;4.63;2.13;;;16.80;99.90;;;;;;5093075;28;20492;-72
2022/09/01 07:56:00;;;;;;;4.65;2.10;;;16.90;99.90;;;;;;5093037;28;20052;-72
2022/09/01 07:58:28;;;;;;;4.65;1.92;;;17.00;99.90;;;;;;5091771;28;20071;-72
2022/09/01 08:00:55;;;;;;;3.47;1.70;;;17.00;99.90;;;;;;5093028;28;20052;-73
2022/09/01 08:03:23;;;;;;;6.10;2.20;;;17.10;99.90;;;;;;5093140;28;20062;-72
2022/09/01 08:05:52;;;;;;;4.35;1.98;;;17.30;99.90;;;;;;5093158;28;20090;-72
2022/09/01 08:08:19;;;;;;;4.90;2.03;;;17.30;99.90;;;;;;5093037;28;20040;-72
2022/09/01 08:10:45;;;;;;;3.38;1.98;;;17.40;99.90;;;;;;5092891;28;20071;-72
2022/09/01 08:13:11;;;;;;;4.35;2.08;;;17.50;99.90;;;;;;5091509;28;20052;-72
2022/09/01 08:15:40;;;;;;;6.15;2.08;;;17.50;99.90;;;;;;5092981;28;20123;-73
2022/09/01 08:18:07;;;;;;;3.58;1.92;;;17.60;99.90;;;;;;5092881;28;20489;-72
2022/09/01 08:20:36;;;;;;;5.63;2.30;;;17.70;99.90;;;;;;5094721;28;20048;-72
2022/09/01 08:23:03;;;;;;;4.32;2.10;;;17.70;99.90;;;;;;5096774;28;20543;-73
2022/09/01 08:25:29;;;;;;;4.32;1.77;;;17.80;99.90;;;;;;5096916;28;20036;-72
2022/09/01 08:27:55;;;;;;;3.58;1.90;;;17.90;99.90;;;;;;5096557;28;20051;-72
2022/09/01 08:30:22;;;;;;;4.60;2.00;;;17.90;99.90;;;;;;5095332;28;20040;-72
2022/09/01 08:32:48;;;;;;;6.32;2.00;;;18.10;99.90;;;;;;5096672;28;20128;-74
2022/09/01 08:35:15;;;;;;;3.38;1.85;;;18.10;99.90;;;;;;5096652;28;20040;-72
2022/09/01 08:37:41;;;;;;;5.40;1.98;;;18.20;99.90;;;;;;5095314;28;20446;-72
2022/09/01 08:40:09;;;;;;;3.35;1.70;;;18.30;99.90;;;;;;5096603;28;20093;-72
2022/09/01 08:42:56;;;;;;;4.55;1.85;;;18.40;99.90;;;;;;5096528;28;20076;-73
2022/09/01 08:45:52;;;;;;;3.83;1.88;;;18.50;99.90;;;;;;5096467;28;20159;-72
2022/09/01 08:48:27;;;;;;;4.30;2.00;;;18.60;99.90;;;;;;5096211;28;20112;-72
2022/09/01 08:51:26;;;;;;;2.35;1.38;;;18.60;99.90;;;;;;5096441;28;20067;-72
2022/09/01 08:54:09;;;;;;;2.75;1.50;;;18.80;99.90;;;;;;5085192;28;20052;-72
2022/09/01 08:56:36;;;;;;;4.90;1.58;;;18.90;99.90;;;;;;5095997;28;20043;-73
2022/09/01 08:59:05;;;;;;;3.70;1.40;;;19.00;99.90;;;;;;5096034;28;20480;-72
2022/09/01 09:01:49;;;;;;;3.95;1.40;;;19.10;99.90;;;;;;5096093;28;20051;-72
2022/09/01 09:04:17;;;;;;;3.33;1.70;;;19.30;99.90;;;;;;5096098;28;20036;-72
2022/09/01 09:06:57;;;;;;;6.72;1.73;;;19.40;99.90;;;;;;5095793;28;20040;-72
2022/09/01 09:09:37;;;;;;;2.30;1.30;;;19.50;99.90;;;;;;5129136;27;20075;-73
2022/09/01 09:12:07;;;;;;;4.50;1.42;;;19.70;99.90;;;;;;5094639;28;20087;-72
2022/09/01 09:14:52;;;;;;;4.15;1.38;;;19.80;99.90;;;;;;5094414;28;20055;-72
2022/09/01 09:17:24;;;;;;;4.15;1.23;;;19.80;99.90;;;;;;5094312;28;20044;-71
2022/09/01 09:19:50;;;;;;;;;;;19.90;99.90;;;;;;5095999;28;20093;-72
2022/09/01 09:22:18;;;;;;;3.78;1.30;;;19.80;99.90;;;;;;5095866;28;19919;-71
2022/09/01 09:25:01;;;;;;;2.15;1.27;;;20.00;99.90;;;;;;5095672;28;20055;-72
2022/09/01 09:27:29;;;;;;;3.28;1.30;;;20.00;99.90;;;;;;5094505;28;20119;-72
2022/09/01 09:30:04;;;;;;;4.78;1.70;;;20.20;99.90;;;;;;5095402;28;20488;-72
2022/09/01 09:33:05;;;;;;;4.05;1.30;;;20.30;99.90;;;;;;5094756;28;20044;-72
2022/09/01 09:35:44;;;;;;;3.90;1.23;;;20.40;99.90;;;;;;5095474;28;20048;-72
2022/09/01 09:38:18;;;;;;;5.15;1.17;;;20.50;99.90;;;;;;5095212;28;20122;-72
2022/09/01 09:41:07;;;;;;;3.22;1.48;;;20.70;99.90;;;;;;5095176;28;20040;-73
2022/09/01 09:43:36;;;;;;;3.80;1.20;;;20.70;99.90;;;;;;5095317;28;20044;-71
2022/09/01 09:46:24;;;;;;;3.03;1.00;;;20.90;99.90;;;;;;5095163;28;20039;-72
2022/09/01 09:49:11;;;;;;;2.00;0.93;;;20.90;99.90;;;;;;5127828;27;20047;-72
2022/09/01 09:51:39;;;;;;;3.05;1.00;;;21.00;99.90;;;;;;5095226;28;20120;-72
2022/09/01 09:54:12;;;;;;;3.38;1.00;;;21.10;99.90;;;;;;5093776;28;20484;-72
2022/09/01 09:56:40;;;;;;;2.83;0.90;;;21.20;99.90;;;;;;5094986;28;20051;-71
2022/09/01 09:59:19;;;;;;;4.10;0.98;;;21.30;99.90;;;;;;5094730;28;20047;-71
2022/09/01 10:01:45;;;;;;;2.92;0.80;;;21.30;99.40;;;;;;5094975;28;20040;-72
2022/09/01 10:04:31;;;;;;;1.80;0.80;;;21.30;98.90;;;;;;5094858;28;20388;-71
2022/09/01 10:06:57;;;;;;;2.97;0.90;;;21.30;97.30;;;;;;5095014;28;20416;-72
2022/09/01 10:09:23;;;;;;;3.40;1.08;;;21.30;98.80;;;;;;5094536;28;20115;-71
2022/09/01 10:11:53;;;;;;;3.55;0.98;;;21.50;99.00;;;;;;5093639;28;20116;-72
2022/09/01 10:14:22;;;;;;;2.13;0.93;;;21.60;98.90;;;;;;5094576;28;20071;-71
2022/09/01 10:16:53;;;;;;;1.35;0.75;;;21.60;95.80;;;;;;5094534;28;20054;-72
2022/09/01 10:19:20;;;;;;;1.55;0.80;;;21.50;97.00;;;;;;5094521;28;20069;-71
2022/09/01 10:21:46;;;;;;;2.15;0.68;;;21.40;95.80;;;;;;5094472;28;20036;-71
2022/09/01 10:24:32;;;;;;;4.65;0.90;;;21.30;93.70;;;;;;5093175;28;20047;-71
2022/09/01 10:27:09;;;;;;;2.58;0.82;;;21.40;93.60;;;;;;5094591;28;20434;-71
2022/09/01 10:29:35;;;;;;;4.90;0.90;;;21.50;94.30;;;;;;5094325;28;20119;-71
2022/09/01 10:32:07;;;;;;;2.15;0.98;;;21.50;94.70;;;;;;5094354;28;20082;-71
2022/09/01 10:34:36;;;;;;;1.88;0.90;;;21.50;94.10;;;;;;5093005;28;20051;-71
2022/09/01 10:37:03;;;;;;;2.65;0.73;;;21.60;94.40;;;;;;5094200;28;20039;-71
2022/09/01 10:39:28;;;;;;;4.13;0.80;;;21.70;89.20;;;;;;5094007;28;20051;-70
2022/09/01 10:42:06;;;;;;;1.08;0.70;;;21.80;90.00;;;;;;5094111;28;20040;-70
2022/09/01 10:44:37;;;;;;;1.27;0.70;;;21.80;90.20;;;;;;5093150;28;20052;-69
2022/09/01 10:47:28;;;;;;;3.65;0.90;;;21.80;88.80;;;;;;5094073;28;20648;-70
2022/09/01 10:49:54;;;;;;;2.00;0.82;;;21.90;86.40;;;;;;5075786;28;20468;-71
2022/09/01 10:52:41;;;;;;;3.55;1.02;;;21.80;89.90;;;;;;5126914;27;20040;-70
2022/09/01 10:55:29;;;;;;;1.77;0.68;;;21.60;85.80;;;;;;5093854;28;20044;-70
2022/09/01 10:57:57;;;;;;;1.77;0.70;;;21.40;86.70;;;;;;5092625;28;20044;-71
2022/09/01 11:00:23;;;;;;;5.20;1.00;;;21.30;89.40;;;;;;5093689;28;20044;-71
2022/09/01 11:03:10;;;;;;;1.40;0.68;;;21.10;86.00;;;;;;5093742;28;20400;-70
2022/09/01 11:05:56;;;;;;;3.70;0.90;;;21.00;87.90;;;;;;5093606;28;20040;-71
2022/09/01 11:08:40;;;;;;;2.28;0.80;;;21.20;88.00;;;;;;5093664;28;20048;-70
2022/09/01 11:11:15;;;;;;;2.85;0.73;;;21.40;86.80;;;;;;5093729;28;20115;-70
2022/09/01 11:13:49;;;;;;;1.98;0.70;;;21.70;87.90;;;;;;5093569;28;20048;-71
2022/09/01 11:16:26;;;;;;;3.17;0.70;;;21.70;90.20;;;;;;5093579;28;20036;-71
2022/09/01 11:18:52;;;;;;;2.92;0.90;;;21.90;86.50;;;;;;5093595;28;20044;-71
2022/09/01 11:21:29;;;;;;;1.58;0.70;;;22.00;87.80;;;;;;5093572;28;20097;-71
2022/09/01 11:24:33;;;;;;;3.85;0.88;;;22.00;79.80;;;;;;5093516;28;20089;-71
2022/09/01 11:26:58;;;;;;;2.90;0.88;;;22.00;85.90;;;;;;5093588;28;20040;-71
2022/09/01 11:29:50;;;;;;;2.05;0.82;;;21.90;87.50;;;;;;5092074;28;20089;-70
2022/09/01 11:32:18;;;;;;;3.00;0.80;;;21.80;86.40;;;;;;5092123;28;20040;-71
2022/09/01 11:34:47;;;;;;;1.67;0.90;;;21.60;84.30;;;;;;5092086;28;20040;-70
2022/09/01 11:37:15;;;;;;;2.70;0.80;;;21.50;87.00;;;;;;5093537;28;20047;-70
2022/09/01 11:39:51;;;;;;;3.17;0.90;;;21.70;84.80;;;;;;5126249;28;20065;-71
2022/09/01 11:42:26;;;;;;;3.70;0.80;;;21.80;85.50;;;;;;5093399;28;20093;-71
2022/09/01 11:44:56;;;;;;;3.10;0.90;;;21.90;85.50;;;;;;5093292;28;20170;-71
2022/09/01 11:47:30;;;;;;;2.38;1.13;;;21.80;81.00;;;;;;5093193;28;20481;-71
2022/09/01 11:50:16;;;;;;;2.42;0.90;;;21.70;85.70;;;;;;5093383;28;20032;-71
2022/09/01 11:52:50;;;;;;;1.85;0.77;;;21.60;82.10;;;;;;5093179;28;20090;-72
2022/09/01 11:55:27;;;;;;;3.53;1.00;;;21.70;86.20;;;;;;5094752;28;20526;-71
2022/09/01 11:57:53;;;;;;;2.90;0.80;;;21.70;82.80;;;;;;5097302;28;20520;-71
2022/09/01 12:00:27;;;;;;;2.17;0.95;;;21.70;85.50;;;;;;5078893;28;20040;-71
2022/09/01 12:02:53;;;;;;;1.40;0.70;;;21.70;87.50;;;;;;5097272;28;20032;-72
2022/09/01 12:05:29;;;;;;;2.10;0.90;;;21.50;86.50;;;;;;5097286;28;20093;-71
2022/09/01 12:07:55;;;;;;;1.35;0.90;;;21.50;86.40;;;;;;5097009;28;20072;-71
2022/09/01 12:10:32;;;;;;;2.08;0.80;;;21.30;87.00;;;;;;5096953;28;20507;-71
2022/09/01 12:13:19;;;;;;;2.50;0.85;;;21.30;85.40;;;;;;5096943;28;20141;-71
2022/09/01 12:15:55;;;;;;;1.73;0.70;;;21.50;83.40;;;;;;5095956;28;20051;-71
2022/09/01 12:18:26;;;;;;;1.70;0.80;;;21.70;83.60;;;;;;5096955;28;20036;-72
2022/09/01 12:20:54;;;;;;;3.03;0.70;;;21.90;85.30;;;;;;5096968;28;20105;-71
2022/09/01 12:23:41;;;;;;;1.55;0.80;;;22.00;86.30;;;;;;5096985;28;20046;-71
2022/09/01 12:26:25;;;;;;;1.40;0.70;;;22.10;81.60;;;;;;5096737;28;20495;-72
2022/09/01 12:28:51;;;;;;;1.25;0.70;;;22.10;83.00;;;;;;5096537;28;20032;-71
2022/09/01 12:31:25;;;;;;;1.70;0.70;;;22.20;85.20;;;;;;5095412;28;20097;-71
2022/09/01 12:33:52;;;;;;;2.97;0.70;;;22.20;82.20;;;;;;5096741;28;20384;-71
2022/09/01 12:36:28;;;;;;;2.55;0.90;;;22.10;82.90;;;;;;5096601;28;20118;-71
2022/09/01 12:39:16;;;;;;;1.35;0.70;;;21.90;84.70;;;;;;5096579;28;20114;-71
2022/09/01 12:41:44;;;;;;;2.85;0.90;;;21.70;83.40;;;;;;5096192;28;20146;-71
2022/09/01 12:44:26;;;;;;;3.30;0.70;;;21.70;82.50;;;;;;5096336;28;20550;-71
2022/09/01 12:46:52;;;;;;;;;;;21.70;82.10;;;;;;5096877;28;20036;-72
2022/09/01 12:49:33;;;;;;;1.60;0.90;;;21.60;81.80;;;;;;5096229;28;20281;-71
2022/09/01 12:52:18;;;;;;;4.90;1.05;;;21.50;86.30;;;;;;5096331;28;20047;-71
2022/09/01 12:54:49;;;;;;;5.10;0.90;;;21.40;85.00;;;;;;5096331;28;20403;-71
2022/09/01 12:57:27;;;;;;;3.00;1.00;;;21.40;87.20;;;;;;5096168;28;20040;-71
2022/09/01 13:00:11;;;;;;;3.20;0.90;;;21.50;86.60;;;;;;5094701;28;20048;-71
2022/09/01 13:02:40;;;;;;;1.83;0.75;;;21.60;83.80;;;;;;5096136;28;20036;-71
2022/09/01 13:05:26;;;;;;;1.75;0.80;;;21.60;83.70;;;;;;5095011;28;20101;-71
2022/09/01 13:07:57;;;;;;;2.22;0.90;;;21.50;85.20;;;;;;5093165;28;20508;-71
2022/09/01 13:10:27;;;;;;;2.80;1.00;;;21.50;88.20;;;;;;5095832;28;20518;-71